Time;durP1;ratioP1;P1;durP2;ratioP2;P2;SDS_P1;SDS_P2;PMS_P1;PMS_P2;Temp;Humidity;BMP_temperature;BMP_pressure;BME280_temperature;BME280_humidity;BME280_pressure;Samples;Min_cycle;Max_cycle;Signal;HPM_P1;HPM_P2
2022/11/13 00:01:57;;;;;;;34.80;26.20;;;;;;;9.80;90.88;102090.52;100546;1294;95400;-59
2022/11/13 00:04:31;;;;;;;39.00;27.40;;;;;;;9.82;90.80;102083.15;100472;1297;82041;-58
2022/11/13 00:07:04;;;;;;;35.80;27.00;;;;;;;9.78;90.85;102086.20;100553;1293;89589;-58
2022/11/13 00:09:37;;;;;;;35.80;26.90;;;;;;;9.80;90.86;102087.05;100558;1294;82532;-58
2022/11/13 00:12:11;;;;;;;35.90;26.10;;;;;;;9.82;90.80;102084.04;100601;1296;98147;-59
2022/11/13 00:14:45;;;;;;;36.00;26.20;;;;;;;9.79;90.90;102081.44;100579;1293;94371;-57
2022/11/13 00:17:19;;;;;;;39.70;28.80;;;;;;;9.75;90.91;102078.73;100594;1293;83343;-57
2022/11/13 00:19:51;;;;;;;34.40;26.50;;;;;;;9.75;90.98;102076.77;100598;1293;88100;-60
2022/11/13 00:22:26;;;;;;;33.20;25.00;;;;;;;9.77;90.90;102080.56;100556;1293;82263;-60
2022/11/13 00:24:57;;;;;;;34.10;25.80;;;;;;;9.74;91.04;102080.64;100575;1296;98975;-60
2022/11/13 00:27:33;;;;;;;39.00;26.70;;;;;;;9.75;90.97;102075.68;100539;1294;94178;-60
2022/11/13 00:30:06;;;;;;;37.80;26.50;;;;;;;9.72;91.00;102075.10;100445;1296;81945;-58
2022/11/13 00:32:36;;;;;;;36.80;25.70;;;;;;;9.73;91.01;102082.04;100567;1290;86435;-57
2022/11/13 00:35:08;;;;;;;34.20;24.50;;;;;;;9.69;91.03;102077.48;100590;1291;80762;-58
2022/11/13 00:37:37;;;;;;;35.10;25.40;;;;;;;9.67;91.15;102075.52;100526;1293;99843;-58
2022/11/13 00:40:14;;;;;;;33.80;25.40;;;;;;;9.66;91.15;102081.04;100565;1291;95276;-57
2022/11/13 00:42:46;;;;;;;37.00;25.80;;;;;;;9.63;91.31;102084.89;100541;1296;82524;-59
2022/11/13 00:45:16;;;;;;;34.60;26.20;;;;;;;9.62;91.37;102089.19;100572;1293;88312;-59
2022/11/13 00:47:48;;;;;;;34.60;25.20;;;;;;;9.63;91.46;102089.44;100551;1293;82493;-59
2022/11/13 00:50:20;;;;;;;33.30;25.20;;;;;;;9.66;91.42;102085.23;100606;1293;98312;-59
2022/11/13 00:52:49;;;;;;;37.20;25.80;;;;;;;9.65;91.53;102086.14;100575;1295;93405;-59
2022/11/13 00:55:18;;;;;;;36.50;26.90;;;;;;;9.67;91.62;102083.64;100626;1294;81019;-59
2022/11/13 00:57:49;;;;;;;35.30;25.60;;;;;;;9.67;91.60;102084.18;100603;1289;87917;-59
2022/11/13 01:00:20;;;;;;;34.60;25.80;;;;;;;9.64;91.58;102083.23;100652;1294;81647;-60
2022/11/13 01:02:51;;;;;;;35.60;26.90;;;;;;;9.63;91.61;102074.80;100632;1296;99757;-60
2022/11/13 01:05:35;;;;;;;35.20;25.20;;;;;;;9.67;91.53;102068.02;100581;1294;93803;-60
2022/11/13 01:08:10;;;;;;;38.90;26.60;;;;;;;9.64;91.53;102064.34;100586;1282;81629;-60
2022/11/13 01:10:46;;;;;;;38.70;27.30;;;;;;;9.64;91.59;102063.02;101139;1288;87077;-59
2022/11/13 01:13:16;;;;;;;39.20;26.90;;;;;;;9.66;91.60;102059.63;101142;1288;81216;-61
2022/11/13 01:15:46;;;;;;;37.10;27.00;;;;;;;9.69;91.55;102061.83;101044;1290;99991;-58
2022/11/13 01:18:18;;;;;;;37.00;27.00;;;;;;;9.74;91.58;102060.09;101121;1288;94904;-57
2022/11/13 01:20:49;;;;;;;35.70;26.10;;;;;;;9.77;91.41;102060.68;101119;1287;82728;-59
2022/11/13 01:23:21;;;;;;;38.10;26.70;;;;;;;9.79;91.48;102061.23;101123;1288;88643;-59
2022/11/13 01:25:52;;;;;;;34.40;25.60;;;;;;;9.79;91.43;102057.45;101137;1288;81263;-59
2022/11/13 01:28:27;;;;;;;35.70;26.50;;;;;;;9.79;91.35;102056.05;101090;1285;98424;-59
2022/11/13 01:30:57;;;;;;;36.70;26.80;;;;;;;9.80;91.35;102057.39;101163;1287;94307;-58
2022/11/13 01:33:29;;;;;;;37.30;26.30;;;;;;;9.76;91.38;102055.27;101125;1288;81547;-58
2022/11/13 01:36:10;;;;;;;39.50;27.80;;;;;;;9.71;91.53;102051.98;101164;1274;86725;-59
2022/11/13 01:38:42;;;;;;;37.30;26.60;;;;;;;9.66;91.59;102051.32;101163;1288;81281;-57
2022/11/13 01:41:18;;;;;;;36.30;26.30;;;;;;;9.67;91.64;102048.57;101229;1289;99794;-57
2022/11/13 01:43:49;;;;;;;38.30;25.20;;;;;;;9.65;91.76;102046.14;101174;1288;94935;-58
2022/11/13 01:46:30;;;;;;;36.30;27.60;;;;;;;9.65;91.80;102046.77;101214;1288;83579;-58
2022/11/13 01:49:21;;;;;;;37.90;27.00;;;;;;;9.72;91.64;102045.55;101180;1288;88608;-58
2022/11/13 01:51:55;;;;;;;40.30;27.10;;;;;;;9.76;91.56;102043.77;101204;1287;81984;-59
2022/11/13 01:54:32;;;;;;;40.50;27.00;;;;;;;9.75;91.54;102041.31;101202;1289;99284;-58
2022/11/13 01:57:06;;;;;;;44.30;29.20;;;;;;;9.74;91.63;102040.45;101121;1272;92649;-57
2022/11/13 01:59:44;;;;;;;40.10;26.90;;;;;;;9.72;91.74;102038.36;101148;1289;81865;-59
2022/11/13 02:02:18;;;;;;;35.70;26.40;;;;;;;9.66;91.87;102040.19;101084;1285;89103;-60
2022/11/13 02:04:50;;;;;;;39.20;27.60;;;;;;;9.67;91.85;102037.83;101146;1289;81988;-59
2022/11/13 02:07:26;;;;;;;39.20;27.10;;;;;;;9.62;92.05;102038.73;101115;1288;99443;-60
2022/11/13 02:10:01;;;;;;;40.80;27.30;;;;;;;9.58;92.04;102035.36;101128;1289;94392;-59
2022/11/13 02:12:37;;;;;;;36.80;27.20;;;;;;;9.57;91.99;102029.77;101128;1289;82477;-59
2022/11/13 02:15:11;;;;;;;42.80;29.10;;;;;;;9.61;92.10;102032.78;101145;1288;89191;-56
2022/11/13 02:17:48;;;;;;;41.80;28.40;;;;;;;9.70;91.88;102034.09;101112;1289;82376;-57
2022/11/13 02:20:28;;;;;;;40.30;28.20;;;;;;;9.72;91.83;102031.04;101130;1287;99264;-57
2022/11/13 02:23:15;;;;;;;40.40;28.00;;;;;;;9.72;91.88;102032.77;101110;1283;91909;-57
2022/11/13 02:25:48;;;;;;;39.30;27.40;;;;;;;9.69;91.86;102029.64;101167;1288;82027;-58
2022/11/13 02:28:19;;;;;;;40.70;27.60;;;;;;;9.66;91.95;102030.13;101097;1289;87291;-57
2022/11/13 02:30:49;;;;;;;39.30;27.80;;;;;;;9.63;92.12;102030.92;101199;1282;82587;-59
2022/11/13 02:33:28;;;;;;;38.00;27.00;;;;;;;9.63;92.07;102030.55;101127;1285;99067;-59
2022/11/13 02:36:00;;;;;;;39.70;28.30;;;;;;;9.62;92.17;102031.02;101190;1281;94461;-58
2022/11/13 02:38:33;;;;;;;41.10;28.30;;;;;;;9.57;92.25;102027.90;101166;1287;81574;-58
2022/11/13 02:41:06;;;;;;;38.40;27.10;;;;;;;9.60;92.19;102024.42;101164;1288;88948;-59
2022/11/13 02:43:40;;;;;;;42.40;27.30;;;;;;;9.60;92.26;102026.61;101177;1287;80213;-60
2022/11/13 02:46:11;;;;;;;43.60;28.70;;;;;;;9.64;92.29;102029.23;101136;1288;98615;-58
2022/11/13 02:48:40;;;;;;;36.50;26.10;;;;;;;9.63;92.30;102025.59;101130;1288;94881;-58
2022/11/13 02:51:13;;;;;;;40.00;27.10;;;;;;;9.64;92.30;102024.93;101146;1288;82550;-57
2022/11/13 02:53:49;;;;;;;38.40;27.20;;;;;;;9.67;92.25;102024.66;101120;1287;87700;-57
2022/11/13 02:56:19;;;;;;;37.20;26.30;;;;;;;9.74;92.12;102024.86;101148;1288;81226;-57
2022/11/13 02:58:48;;;;;;;39.40;26.80;;;;;;;9.74;92.12;102026.48;101134;1289;99626;-58
2022/11/13 03:01:21;;;;;;;39.80;26.90;;;;;;;9.70;92.17;102025.64;101155;1289;94281;-59
2022/11/13 03:03:54;;;;;;;39.20;27.10;;;;;;;9.67;92.15;102028.79;101135;1289;80527;-58
2022/11/13 03:06:29;;;;;;;42.40;26.40;;;;;;;9.71;92.14;102031.29;101164;1285;88937;-59
2022/11/13 03:09:01;;;;;;;38.80;27.10;;;;;;;9.74;91.99;102026.47;101168;1289;81003;-59
2022/11/13 03:11:32;;;;;;;40.50;26.90;;;;;;;9.70;92.03;102023.96;101186;1288;99523;-58
2022/11/13 03:14:03;;;;;;;38.50;26.90;;;;;;;9.71;92.02;102024.97;101175;1282;94640;-57
2022/11/13 03:16:38;;;;;;;45.00;29.00;;;;;;;9.73;92.04;102029.80;101211;1281;82131;-59
2022/11/13 03:19:11;;;;;;;39.30;26.30;;;;;;;9.73;92.10;102028.20;101179;1289;88369;-60
2022/11/13 03:21:43;;;;;;;41.20;28.00;;;;;;;9.70;92.14;102024.52;101215;1287;79750;-58
2022/11/13 03:24:12;;;;;;;40.90;27.20;;;;;;;9.66;92.25;102023.32;101220;1288;97565;-57
2022/11/13 03:26:46;;;;;;;39.70;27.20;;;;;;;9.69;92.16;102026.83;101157;1289;93462;-60
2022/11/13 03:29:22;;;;;;;40.00;27.00;;;;;;;9.71;92.04;102029.31;101183;1282;83371;-59
2022/11/13 03:31:53;;;;;;;39.00;26.80;;;;;;;9.69;92.07;102035.10;101103;1286;88293;-58
2022/11/13 03:34:27;;;;;;;38.00;26.20;;;;;;;9.70;92.14;102037.31;101131;1281;81620;-58
2022/11/13 03:37:00;;;;;;;37.70;26.20;;;;;;;9.72;92.11;102032.80;101145;1286;98086;-59
2022/11/13 03:39:33;;;;;;;38.40;26.10;;;;;;;9.73;92.04;102032.71;101116;1289;93909;-58
2022/11/13 03:42:03;;;;;;;40.80;26.60;;;;;;;9.73;91.97;102036.15;101134;1289;80631;-58
2022/11/13 03:44:32;;;;;;;40.20;26.40;;;;;;;9.67;92.04;102034.70;101146;1287;88849;-58
2022/11/13 03:47:05;;;;;;;39.60;26.10;;;;;;;9.66;92.11;102039.34;101154;1287;81513;-59
2022/11/13 03:49:37;;;;;;;39.50;27.00;;;;;;;9.67;92.03;102036.35;101174;1288;99566;-58
2022/11/13 03:52:08;;;;;;;40.90;27.20;;;;;;;9.69;92.06;102034.69;101126;1289;95701;-58
2022/11/13 03:54:39;;;;;;;43.00;26.90;;;;;;;9.70;92.13;102036.77;101190;1287;82610;-57
2022/11/13 03:57:11;;;;;;;39.90;26.50;;;;;;;9.72;92.03;102036.27;101164;1288;88118;-59
2022/11/13 03:59:40;;;;;;;41.20;26.50;;;;;;;9.64;92.13;102039.11;101187;1288;81695;-57
2022/11/13 04:02:14;;;;;;;42.10;26.60;;;;;;;9.59;92.33;102038.00;101171;1281;98301;-57
2022/11/13 04:04:43;;;;;;;38.80;27.10;;;;;;;9.60;92.10;102039.27;101176;1287;96014;-60
2022/11/13 04:07:16;;;;;;;40.30;26.80;;;;;;;9.55;92.30;102039.32;101150;1289;82131;-59
2022/11/13 04:09:47;;;;;;;43.10;27.60;;;;;;;9.58;92.24;102040.45;101188;1281;86540;-58
2022/11/13 04:12:17;;;;;;;43.40;28.60;;;;;;;9.59;92.26;102037.66;101149;1289;82401;-57
2022/11/13 04:14:50;;;;;;;44.70;28.40;;;;;;;9.61;92.24;102036.39;101177;1281;98319;-57
2022/11/13 04:17:24;;;;;;;41.50;27.40;;;;;;;9.58;92.33;102034.88;101094;1288;92616;-57
2022/11/13 04:19:54;;;;;;;44.40;28.30;;;;;;;9.59;92.31;102033.15;101171;1278;81358;-60
2022/11/13 04:22:25;;;;;;;42.40;27.80;;;;;;;9.61;92.29;102034.38;101100;1282;88804;-59
2022/11/13 04:24:54;;;;;;;39.80;26.80;;;;;;;9.61;92.30;102035.80;101109;1281;80038;-60
2022/11/13 04:27:26;;;;;;;42.40;27.40;;;;;;;9.60;92.29;102036.15;101126;1288;96784;-60
2022/11/13 04:29:57;;;;;;;40.00;26.30;;;;;;;9.56;92.43;102039.37;101109;1278;94983;-59
2022/11/13 04:32:27;;;;;;;42.40;26.40;;;;;;;9.61;92.38;102039.20;101134;1287;82299;-59
2022/11/13 04:35:03;;;;;;;42.50;27.50;;;;;;;9.59;92.33;102040.30;101116;1288;88638;-59
2022/11/13 04:37:37;;;;;;;42.20;27.20;;;;;;;9.56;92.45;102041.73;101143;1287;81245;-59
2022/11/13 04:40:12;;;;;;;41.10;27.60;;;;;;;9.54;92.55;102035.73;101174;1288;98481;-57
2022/11/13 04:42:49;;;;;;;38.70;25.30;;;;;;;9.58;92.45;102035.22;100776;1285;94063;-57
2022/11/13 04:45:26;;;;;;;43.60;27.20;;;;;;;9.58;92.43;102040.42;101181;1287;82617;-57
2022/11/13 04:47:57;;;;;;;38.70;25.80;;;;;;;9.59;92.45;102036.70;101166;1289;87468;-56
2022/11/13 04:50:27;;;;;;;40.00;25.70;;;;;;;9.59;92.39;102038.71;101172;1285;80923;-57
2022/11/13 04:52:59;;;;;;;40.20;26.90;;;;;;;9.60;92.42;102044.57;101164;1280;99539;-58
2022/11/13 04:55:30;;;;;;;39.20;25.30;;;;;;;9.55;92.55;102042.39;101160;1281;93622;-57
2022/11/13 04:57:59;;;;;;;43.00;27.40;;;;;;;9.54;92.64;102046.70;101159;1288;82444;-57
2022/11/13 05:00:34;;;;;;;41.40;26.30;;;;;;;9.60;92.46;102047.13;101161;1287;88378;-58
2022/11/13 05:03:07;;;;;;;40.00;26.90;;;;;;;9.59;92.50;102044.61;101136;1281;80504;-57
2022/11/13 05:05:39;;;;;;;40.90;26.30;;;;;;;9.60;92.55;102044.96;101200;1282;99370;-60
2022/11/13 05:08:16;;;;;;;42.00;27.00;;;;;;;9.60;92.71;102050.36;100986;1289;93850;-60
2022/11/13 05:10:49;;;;;;;40.20;27.90;;;;;;;9.58;92.76;102048.83;101139;1281;82545;-59
2022/11/13 05:13:20;;;;;;;40.10;27.80;;;;;;;9.59;92.73;102049.30;101093;1287;86973;-58
2022/11/13 05:16:00;;;;;;;40.70;27.00;;;;;;;9.61;92.63;102051.50;101137;1287;82399;-59
2022/11/13 05:18:35;;;;;;;42.60;27.00;;;;;;;9.65;92.54;102049.27;101149;1288;98729;-59
2022/11/13 05:21:04;;;;;;;42.80;28.20;;;;;;;9.64;92.48;102052.45;101072;1282;94994;-59
2022/11/13 05:23:34;;;;;;;42.80;27.00;;;;;;;9.64;92.50;102054.81;101200;1287;82101;-59
2022/11/13 05:26:09;;;;;;;40.80;27.00;;;;;;;9.63;92.51;102056.65;101188;1281;87986;-62
2022/11/13 05:28:43;;;;;;;43.20;28.20;;;;;;;9.62;92.55;102059.50;101179;1289;82981;-58
2022/11/13 05:31:18;;;;;;;40.30;26.90;;;;;;;9.64;92.49;102062.20;101224;1288;98984;-60
2022/11/13 05:34:04;;;;;;;41.60;27.40;;;;;;;9.66;92.51;102063.43;101159;1288;95962;-59
2022/11/13 05:36:34;;;;;;;41.70;27.40;;;;;;;9.67;92.48;102066.16;101208;1288;83088;-57
2022/11/13 05:39:08;;;;;;;44.00;29.40;;;;;;;9.64;92.44;102072.95;101180;1288;88779;-56
2022/11/13 05:41:39;;;;;;;39.80;26.80;;;;;;;9.61;92.49;102070.92;101129;1281;79343;-66
2022/11/13 05:44:09;;;;;;;42.00;27.30;;;;;;;9.59;92.56;102073.42;101119;1289;99185;-57
2022/11/13 05:46:40;;;;;;;41.40;27.10;;;;;;;9.59;92.61;102072.17;101102;1281;93956;-60
2022/11/13 05:49:16;;;;;;;44.30;27.40;;;;;;;9.59;92.78;102071.95;101128;1282;81212;-60
2022/11/13 05:51:47;;;;;;;43.70;28.40;;;;;;;9.63;92.60;102071.41;101129;1288;88487;-58
2022/11/13 05:54:22;;;;;;;42.10;28.10;;;;;;;9.64;92.53;102070.58;101113;1288;82413;-59
2022/11/13 05:56:50;;;;;;;;;;;;;;;9.68;92.44;102067.02;101148;1287;98610;-57
2022/11/13 05:59:21;;;;;;;40.80;26.80;;;;;;;9.67;92.47;102069.58;101122;1286;95706;-58
2022/11/13 06:01:50;;;;;;;42.20;26.90;;;;;;;9.64;92.61;102067.23;101036;1286;82897;-59
2022/11/13 06:04:20;;;;;;;39.10;26.00;;;;;;;9.69;92.52;102066.21;101129;1282;88054;-57
2022/11/13 06:06:51;;;;;;;41.30;27.80;;;;;;;9.69;92.50;102066.20;101158;1280;80935;-58
2022/11/13 06:09:22;;;;;;;42.10;27.10;;;;;;;9.65;92.59;102066.52;101191;1287;97988;-59
2022/11/13 06:11:56;;;;;;;41.20;27.50;;;;;;;9.64;92.69;102065.98;101221;1282;94365;-57
2022/11/13 06:14:28;;;;;;;43.60;27.50;;;;;;;9.62;92.68;102068.28;101225;1282;82255;-59
2022/11/13 06:16:59;;;;;;;43.10;28.90;;;;;;;9.65;92.63;102067.80;101195;1285;87328;-59
2022/11/13 06:19:32;;;;;;;40.90;27.40;;;;;;;9.63;92.64;102070.69;101227;1282;82585;-58
2022/11/13 06:22:01;;;;;;;41.50;27.80;;;;;;;9.64;92.76;102073.45;101180;1282;98967;-58
2022/11/13 06:24:33;;;;;;;42.50;27.80;;;;;;;9.65;92.76;102072.28;101152;1287;95223;-57
2022/11/13 06:27:04;;;;;;;43.50;29.50;;;;;;;9.69;92.73;102072.65;101143;1287;81943;-57
2022/11/13 06:29:36;;;;;;;44.20;28.30;;;;;;;9.69;92.74;102071.95;101147;1289;89160;-57
2022/11/13 06:32:09;;;;;;;45.30;29.30;;;;;;;9.75;92.64;102073.15;101133;1278;80830;-57
2022/11/13 06:34:38;;;;;;;42.80;28.00;;;;;;;9.77;92.51;102073.51;101168;1288;99781;-58
2022/11/13 06:37:12;;;;;;;44.10;29.10;;;;;;;9.84;92.51;102072.33;101100;1282;93410;-58
2022/11/13 06:39:43;;;;;;;44.50;29.30;;;;;;;9.85;92.41;102071.69;101154;1281;82231;-59
2022/11/13 06:42:14;;;;;;;41.90;28.50;;;;;;;9.84;92.46;102073.89;101156;1288;89657;-60
2022/11/13 06:44:47;;;;;;;42.60;28.50;;;;;;;9.82;92.69;102076.59;101163;1282;82017;-58
2022/11/13 06:47:21;;;;;;;42.50;28.40;;;;;;;9.84;92.77;102073.52;101176;1281;99897;-59
2022/11/13 06:49:52;;;;;;;43.00;29.60;;;;;;;9.92;92.59;102077.13;101175;1280;95473;-58
2022/11/13 06:52:21;;;;;;;39.80;27.70;;;;;;;9.99;92.56;102078.25;101166;1288;83511;-58
2022/11/13 06:54:53;;;;;;;39.90;28.90;;;;;;;10.00;92.70;102083.88;101230;1288;89627;-59
2022/11/13 06:57:28;;;;;;;43.90;28.90;;;;;;;10.07;92.72;102080.90;101162;1287;82483;-59
2022/11/13 07:00:02;;;;;;;40.90;27.40;;;;;;;10.16;92.63;102082.80;101178;1288;99204;-57
2022/11/13 07:02:31;;;;;;;41.00;27.20;;;;;;;10.16;92.57;102080.70;101138;1288;94053;-58
2022/11/13 07:05:00;;;;;;;38.80;26.20;;;;;;;10.18;92.51;102080.30;101195;1288;83379;-59
2022/11/13 07:07:37;;;;;;;40.20;25.20;;;;;;;10.20;92.38;102078.29;101179;1280;88665;-59
2022/11/13 07:10:13;;;;;;;38.00;24.90;;;;;;;10.17;92.33;102079.27;101188;1288;81571;-60
2022/11/13 07:12:42;;;;;;;34.80;24.10;;;;;;;10.16;92.38;102075.59;101134;1285;99722;-60
2022/11/13 07:15:15;;;;;;;39.60;24.80;;;;;;;10.19;92.33;102077.98;101151;1286;96064;-59
2022/11/13 07:17:45;;;;;;;35.80;24.00;;;;;;;10.21;92.44;102081.10;101141;1288;82884;-60
2022/11/13 07:20:15;;;;;;;38.20;23.50;;;;;;;10.19;92.45;102081.27;101151;1287;88198;-59
2022/11/13 07:22:44;;;;;;;33.50;22.40;;;;;;;10.25;92.38;102084.11;101123;1282;80044;-59
2022/11/13 07:25:17;;;;;;;33.90;22.10;;;;;;;10.29;92.21;102085.67;101148;1285;97412;-58
2022/11/13 07:27:51;;;;;;;31.80;21.40;;;;;;;10.25;92.33;102080.83;101091;1288;95014;-58
2022/11/13 07:30:23;;;;;;;32.30;22.70;;;;;;;10.33;92.24;102080.11;101141;1287;83214;-58
2022/11/13 07:32:54;;;;;;;32.10;22.60;;;;;;;10.38;92.21;102078.52;101145;1282;87941;-58
2022/11/13 07:35:23;;;;;;;32.10;21.50;;;;;;;10.44;92.07;102075.06;101199;1280;79937;-57
2022/11/13 07:37:57;;;;;;;33.00;22.10;;;;;;;10.39;92.04;102073.59;101205;1287;99494;-57
2022/11/13 07:40:26;;;;;;;34.00;23.20;;;;;;;10.36;92.14;102077.79;101192;1285;95238;-57
2022/11/13 07:43:04;;;;;;;33.70;23.10;;;;;;;10.39;92.02;102081.42;101189;1288;81809;-57
2022/11/13 07:45:36;;;;;;;34.10;22.10;;;;;;;10.40;91.99;102080.25;101217;1288;88323;-60
2022/11/13 07:48:10;;;;;;;34.30;22.50;;;;;;;10.41;92.03;102080.54;101168;1288;81063;-60
2022/11/13 07:50:40;;;;;;;31.00;22.30;;;;;;;10.48;91.87;102080.91;101104;1284;100125;-57
2022/11/13 07:53:12;;;;;;;32.30;21.80;;;;;;;10.47;91.87;102082.85;101082;1288;95040;-57
2022/11/13 07:55:41;;;;;;;33.30;21.80;;;;;;;10.44;91.93;102083.74;101132;1274;81534;-59
2022/11/13 07:58:11;;;;;;;32.60;22.40;;;;;;;10.46;92.00;102080.23;101115;1288;88719;-60
2022/11/13 08:00:41;;;;;;;31.90;21.50;;;;;;;10.51;91.91;102076.92;101136;1285;81068;-57
2022/11/13 08:03:15;;;;;;;34.20;23.20;;;;;;;10.57;91.75;102076.81;101095;1287;98482;-57
2022/11/13 08:05:46;;;;;;;31.20;21.70;;;;;;;10.65;91.47;102075.89;101026;1284;94588;-56
2022/11/13 08:08:17;;;;;;;33.40;22.80;;;;;;;10.65;91.28;102073.36;101134;1281;80424;-57
2022/11/13 08:10:48;;;;;;;32.40;22.40;;;;;;;10.59;91.38;102079.02;101121;1282;89510;-58
2022/11/13 08:13:20;;;;;;;32.30;22.20;;;;;;;10.60;91.51;102079.73;101101;1280;82670;-58
2022/11/13 08:15:50;;;;;;;34.20;22.10;;;;;;;10.65;91.48;102079.96;101152;1289;99340;-58
2022/11/13 08:18:19;;;;;;;36.00;22.30;;;;;;;10.65;91.46;102082.83;101107;1281;93335;-58
2022/11/13 08:20:50;;;;;;;31.30;21.40;;;;;;;10.64;91.40;102081.90;101179;1265;82615;-58
2022/11/13 08:23:21;;;;;;;31.70;20.60;;;;;;;10.56;91.51;102080.36;101186;1288;88533;-59
2022/11/13 08:25:53;;;;;;;29.10;19.90;;;;;;;10.60;91.45;102082.29;101212;1288;81051;-61
2022/11/13 08:28:21;;;;;;;27.60;19.10;;;;;;;10.64;91.30;102076.48;101225;1288;100474;-61
2022/11/13 08:30:54;;;;;;;27.80;18.70;;;;;;;10.68;91.28;102078.27;101138;1282;94544;-58
2022/11/13 08:33:25;;;;;;;28.10;18.10;;;;;;;10.68;91.26;102074.31;101059;1290;80049;-59
2022/11/13 08:36:04;;;;;;;29.20;17.30;;;;;;;10.66;91.21;102075.55;101202;1281;88459;-60
2022/11/13 08:38:36;;;;;;;25.90;17.70;;;;;;;10.60;91.36;102081.07;101195;1289;81209;-59
2022/11/13 08:41:08;;;;;;;21.10;14.60;;;;;;;10.51;91.39;102082.86;101191;1281;99935;-57
2022/11/13 08:43:40;;;;;;;22.30;14.90;;;;;;;10.46;91.35;102083.68;101173;1288;93831;-57
2022/11/13 08:46:12;;;;;;;22.80;15.50;;;;;;;10.51;91.12;102089.28;101164;1288;82586;-60
2022/11/13 08:48:42;;;;;;;22.30;15.20;;;;;;;10.52;90.93;102086.70;101142;1288;88165;-58
2022/11/13 08:51:14;;;;;;;22.60;14.80;;;;;;;10.60;90.98;102085.84;101125;1280;82099;-60
2022/11/13 08:53:43;;;;;;;20.20;13.60;;;;;;;10.62;91.09;102086.23;101119;1288;98876;-60
2022/11/13 08:56:13;;;;;;;19.90;12.70;;;;;;;10.68;91.16;102089.29;101107;1285;94654;-60
2022/11/13 08:58:42;;;;;;;17.60;12.80;;;;;;;10.78;91.03;102089.95;101152;1282;80803;-60
2022/11/13 09:01:15;;;;;;;18.60;13.40;;;;;;;10.74;90.98;102088.11;101108;1288;88661;-60
2022/11/13 09:03:46;;;;;;;21.80;14.60;;;;;;;10.73;91.28;102084.27;101118;1282;82109;-59
2022/11/13 09:06:22;;;;;;;20.20;14.60;;;;;;;10.81;90.96;102087.66;101134;1281;99526;-57
2022/11/13 09:08:58;;;;;;;19.50;14.20;;;;;;;10.83;90.93;102086.52;101126;1288;96088;-58
2022/11/13 09:11:33;;;;;;;24.80;16.30;;;;;;;10.88;90.95;102086.77;101200;1282;82511;-57
2022/11/13 09:14:09;;;;;;;27.00;17.30;;;;;;;10.88;90.80;102080.11;101163;1282;87083;-57
2022/11/13 09:16:48;;;;;;;22.20;15.70;;;;;;;10.92;90.63;102078.23;101195;1282;82653;-57
2022/11/13 09:19:22;;;;;;;21.50;15.50;;;;;;;10.99;90.54;102075.02;101250;1288;98873;-58
2022/11/13 09:21:53;;;;;;;24.30;16.20;;;;;;;10.98;90.62;102073.16;101108;1282;95633;-59
2022/11/13 09:24:25;;;;;;;22.80;15.00;;;;;;;11.00;90.52;102068.83;101163;1281;82655;-58
2022/11/13 09:26:55;;;;;;;21.90;15.20;;;;;;;10.97;90.74;102065.09;101156;1281;88551;-57
2022/11/13 09:29:27;;;;;;;19.90;14.30;;;;;;;10.94;90.96;102063.27;101130;1287;81472;-58
2022/11/13 09:31:59;;;;;;;20.20;14.00;;;;;;;10.96;90.90;102065.98;101118;1280;98884;-58
2022/11/13 09:34:33;;;;;;;21.60;13.30;;;;;;;10.93;90.74;102061.38;101113;1288;95087;-57
2022/11/13 09:37:08;;;;;;;20.50;14.00;;;;;;;10.84;90.74;102062.23;101113;1281;81382;-57
2022/11/13 09:39:41;;;;;;;;;;;;;;;10.75;90.87;102061.91;101058;1282;87766;-60
2022/11/13 09:42:20;;;;;;;18.60;13.10;;;;;;;10.74;90.77;102064.52;101132;1282;80455;-58
2022/11/13 09:45:00;;;;;;;18.70;12.90;;;;;;;10.70;90.71;102068.88;101158;1289;99969;-57
2022/11/13 09:47:33;;;;;;;18.50;13.10;;;;;;;10.53;90.95;102066.39;101150;1288;95615;-57
2022/11/13 09:50:15;;;;;;;18.20;12.40;;;;;;;10.51;90.83;102064.23;101160;1288;82193;-59
2022/11/13 09:52:54;;;;;;;15.80;11.60;;;;;;;10.53;90.66;102063.32;101149;1287;86562;-59
2022/11/13 09:56:04;;;;;;;16.10;11.60;;;;;;;10.56;90.53;102064.16;101193;1281;80222;-57
2022/11/13 09:58:49;;;;;;;18.00;11.60;;;;;;;10.53;90.61;102061.52;101208;1282;98700;-57
2022/11/13 10:01:28;;;;;;;15.50;11.00;;;;;;;10.57;90.85;102060.80;101176;1274;94573;-59
2022/11/13 10:04:06;;;;;;;15.20;10.00;;;;;;;10.66;90.81;102061.18;101178;1272;82004;-59
2022/11/13 10:06:58;;;;;;;13.70;9.70;;;;;;;10.65;90.87;102057.80;101137;1288;88007;-58
2022/11/13 10:09:46;;;;;;;12.40;9.10;;;;;;;10.64;91.06;102053.80;101182;1288;82029;-58
2022/11/13 10:12:20;;;;;;;12.00;8.80;;;;;;;10.64;91.00;102049.05;101113;1281;99411;-57
2022/11/13 10:14:52;;;;;;;12.70;8.20;;;;;;;10.71;90.91;102046.28;101172;1288;93823;-59
2022/11/13 10:17:27;;;;;;;;;;;;;;;10.75;90.85;102045.48;101150;1282;82094;-58
2022/11/13 10:20:03;;;;;;;12.20;8.30;;;;;;;10.74;91.04;102048.10;101124;1288;88509;-60
2022/11/13 10:22:40;;;;;;;13.60;8.80;;;;;;;10.77;91.10;102045.31;101156;1281;80851;-60
2022/11/13 10:25:19;;;;;;;11.40;9.00;;;;;;;10.77;91.15;102041.31;101150;1280;98959;-59
2022/11/13 10:27:59;;;;;;;13.30;9.40;;;;;;;10.86;90.78;102035.42;101126;1281;93453;-59
2022/11/13 10:30:30;;;;;;;13.90;9.50;;;;;;;10.87;90.65;102035.62;101162;1281;81120;-61
2022/11/13 10:33:11;;;;;;;13.50;9.30;;;;;;;10.85;90.60;102039.86;101046;1289;86779;-59
2022/11/13 10:35:58;;;;;;;13.70;10.10;;;;;;;10.78;90.54;102041.58;101190;1288;82641;-60
2022/11/13 10:38:43;;;;;;;15.20;10.20;;;;;;;10.79;90.41;102043.91;101176;1288;100620;-60
2022/11/13 10:41:20;;;;;;;14.90;9.80;;;;;;;10.79;90.19;102040.25;101203;1281;93161;-61
2022/11/13 10:44:00;;;;;;;13.50;9.90;;;;;;;10.78;90.22;102042.04;101199;1288;82368;-61
2022/11/13 10:46:35;;;;;;;16.10;10.60;;;;;;;10.71;90.61;102038.30;101146;1288;85621;-58
2022/11/13 10:49:22;;;;;;;13.30;9.90;;;;;;;10.72;90.73;102030.98;101138;1288;81298;-59
2022/11/13 10:52:01;;;;;;;14.10;9.30;;;;;;;10.73;90.64;102030.23;101168;1284;97868;-60
2022/11/13 10:54:33;;;;;;;13.40;10.10;;;;;;;10.74;90.93;102030.66;101148;1288;93602;-59
2022/11/13 10:57:05;;;;;;;13.40;9.70;;;;;;;10.78;90.84;102026.09;101128;1280;81274;-60
2022/11/13 10:59:44;;;;;;;15.50;10.40;;;;;;;10.80;90.80;102026.63;101157;1282;88511;-60
2022/11/13 11:02:26;;;;;;;16.40;10.90;;;;;;;10.78;90.79;102022.85;101147;1279;80391;-59
2022/11/13 11:05:21;;;;;;;17.60;11.10;;;;;;;10.81;90.75;102013.78;101145;1288;99532;-59
2022/11/13 11:07:50;;;;;;;18.80;12.10;;;;;;;10.84;90.81;102012.34;101130;1281;95390;-59
2022/11/13 11:10:35;;;;;;;17.40;11.50;;;;;;;10.89;90.82;102011.83;101183;1288;83211;-59
2022/11/13 11:13:23;;;;;;;21.20;13.60;;;;;;;10.91;90.96;102013.06;101133;1281;89287;-58
2022/11/13 11:15:59;;;;;;;19.40;13.20;;;;;;;10.96;91.19;102015.86;101164;1281;81016;-60
2022/11/13 11:18:36;;;;;;;19.10;13.00;;;;;;;10.99;91.06;102015.38;101112;1281;98794;-59
2022/11/13 11:21:12;;;;;;;19.40;13.30;;;;;;;11.00;90.93;102018.14;101197;1289;95033;-58
2022/11/13 11:23:49;;;;;;;20.20;13.10;;;;;;;10.99;90.87;102022.41;101202;1282;82663;-57
2022/11/13 11:26:25;;;;;;;18.70;12.30;;;;;;;10.96;90.92;102022.31;101190;1288;88772;-57
2022/11/13 11:29:14;;;;;;;17.10;12.50;;;;;;;10.93;90.84;102020.08;101160;1281;80449;-59
2022/11/13 11:31:51;;;;;;;18.80;11.80;;;;;;;10.86;90.67;102018.81;101166;1281;98721;-56
2022/11/13 11:34:32;;;;;;;16.50;11.60;;;;;;;10.92;90.56;102017.52;101152;1288;94205;-57
2022/11/13 11:37:20;;;;;;;15.00;11.60;;;;;;;10.97;90.36;102017.13;101014;1284;83277;-59